Impacts METAR Board
IDs:

KCVG - Cincinnati Intl, KY, US

Updated at: 2100 UTC 15 Jun 2019
Potential Impact None Slight Moderate High
Time 15/09Z 15/10Z 15/11Z 15/12Z 15/13Z 15/14Z 15/15Z 15/16Z 15/17Z 15/18Z 15/19Z 15/20Z 15/21Z
Temp65 65 65 66 66 68 68 70 73 75 73 70 73
Dewpt50 51 51 52 54 55 57 59 60 61 65 65 66
Altim30.01 30.01 30.02 30.00 30.00 29.99 30.00 29.97 29.99 29.98 29.97 29.95 29.92
VIS10 10 10 10 10 10 10 10 10 10 10 10 10
CIG110 120 130 150 120 120 100 70 85 60 40 70 65
CoverOVCOVCBKNBKNBKNBKNBKNOVCOVCOVCOVCOVCBKN
FltCatVFRVFRVFRVFRVFRVFRVFRVFRVFRVFRVFRVFRVFR
WX---------RA---RA-----RA-RA-RA--
WDir1901901901902001902201801902000230190
WSpd9 8 11 10 10 11 9 9 7 6 0 3 4
WGst-- -- -- -- -- -- -- -- -- -- -- -- --
Raw hourly METARs
KCVG 150852Z 19009KT 10SM OVC110 18/10 A3001 RMK AO2 SLP154 T01830100 $
KCVG 150952Z COR 19008KT 10SM OVC120 18/11 A3001 RMK AO2 RAB06E16 SLP156 P0000 T01830106 $
KCVG 151052Z 19011KT 10SM SCT100 BKN130 BKN200 18/11 A3002 RMK AO2 SLP157 T01830106 $
KCVG 151152Z 19010KT 10SM SCT120 BKN150 19/11 A3000 RMK AO2 SLP152 60000 7//// T01890111 10189 20167 58002 $
KCVG 151252Z 20010KT 10SM -RA FEW085 BKN120 19/12 A3000 RMK AO2 RAB47 SLP152 P0000 T01890122 $
KCVG 151352Z 19011KT 10SM BKN120 BKN150 20/13 A2999 RMK AO2 RAE07 SLP149 P0000 T02000128 $
KCVG 151452Z 22009KT 10SM -RA SCT070 BKN100 20/14 A3000 RMK AO2 RAB38 SLP151 P0000 60000 T02000139 55001 $
KCVG 151552Z 18009KT 10SM BKN070 OVC110 21/15 A2997 RMK AO2 RAE24 SLP142 P0001 T02110150 $
KCVG 151652Z 19007KT 10SM SCT075 BKN085 OVC110 23/16 A2999 RMK AO2 RAB1559E48 SLP145 P0000 T02280156 $
KCVG 151752Z 20006KT 10SM -RA BKN060 OVC100 24/16 A2998 RMK AO2 RAB49 SLP145 P0000 60001 T02390161 10239 20189 56005 $
KCVG 151852Z 00000KT 10SM -RA BKN040 BKN055 OVC080 23/18 A2997 RMK AO2 SLP141 P0003 T02280183 $
KCVG 151952Z 23003KT 10SM -RA BKN070 OVC080 21/18 A2995 RMK AO2 PRESFR SLP135 P0011 T02110183 $
KCVG 152052Z 19004KT 10SM BKN065 23/19 A2992 RMK AO2 LTG DSNT W AND NW RAE01 SLP123 P0000 60014 T02280189 58022 $



Page loaded:  21:05 UTC  |   02:05 PM Pacific  |   03:05 PM Mountain  |   04:05 PM Central  |   05:05 PM Eastern

 

ADVISORIES

FORECASTS

FORECASTS

OBSERVATIONS

USER TOOLS

ABOUT US